createdAt,value
2019-01-13T00:00:50.849Z,53.23
2019-01-13T00:01:57.146Z,53.22
2019-01-13T00:02:59.162Z,53.19
2019-01-13T00:04:01.094Z,53.19
2019-01-13T00:05:03.133Z,53.16
2019-01-13T00:06:05.135Z,53.17
2019-01-13T00:07:07.136Z,53.20
2019-01-13T00:08:09.136Z,53.19
2019-01-13T00:09:11.172Z,53.17
2019-01-13T00:10:13.149Z,53.15
2019-01-13T00:11:15.153Z,53.17
2019-01-13T00:12:17.115Z,53.18
2019-01-13T00:13:19.038Z,53.17
2019-01-13T00:14:20.982Z,53.17
2019-01-13T00:15:22.959Z,53.17
2019-01-13T00:16:24.984Z,53.17
2019-01-13T00:17:26.914Z,53.18
2019-01-13T00:18:28.846Z,53.19
2019-01-13T00:19:30.795Z,53.21
2019-01-13T00:20:32.752Z,53.19
2019-01-13T00:21:34.692Z,53.21
2019-01-13T00:22:36.638Z,53.20
2019-01-13T00:23:38.576Z,53.22
2019-01-13T00:24:40.514Z,53.21
2019-01-13T00:25:42.490Z,53.18
2019-01-13T00:26:44.484Z,53.21
2019-01-13T00:27:46.449Z,53.23
2019-01-13T00:28:48.401Z,53.21
2019-01-13T00:29:50.323Z,53.19
2019-01-13T00:30:52.288Z,53.23
2019-01-13T00:31:54.214Z,53.21
2019-01-13T00:32:56.148Z,53.19
2019-01-13T00:34:00.392Z,53.16
2019-01-13T00:35:02.333Z,53.22
2019-01-13T00:36:04.310Z,53.18
2019-01-13T00:37:06.249Z,53.19
2019-01-13T00:38:08.182Z,53.17
2019-01-13T00:39:10.116Z,53.21
2019-01-13T00:40:12.046Z,53.19
2019-01-13T00:41:14.003Z,53.18
2019-01-13T00:42:15.936Z,53.17
2019-01-13T00:43:17.888Z,53.17
2019-01-13T00:44:19.844Z,53.21
2019-01-13T00:45:21.770Z,53.20
2019-01-13T00:46:24.320Z,53.19
2019-01-13T00:47:26.256Z,53.22
2019-01-13T00:48:28.202Z,53.19
2019-01-13T00:49:30.150Z,53.19
2019-01-13T00:50:32.227Z,53.16
2019-01-13T00:51:34.448Z,53.20
2019-01-13T00:52:36.416Z,53.17
2019-01-13T00:53:38.349Z,53.17
2019-01-13T00:54:40.299Z,53.17
2019-01-13T00:55:42.784Z,53.15
2019-01-13T00:56:44.838Z,53.16
2019-01-13T00:57:46.980Z,53.17
2019-01-13T00:58:48.916Z,53.19
2019-01-13T00:59:50.851Z,53.16
2019-01-13T01:00:52.819Z,53.16
2019-01-13T01:01:55.343Z,53.19
2019-01-13T01:02:57.286Z,53.19
2019-01-13T01:04:00.590Z,53.19
2019-01-13T01:05:03.225Z,53.20
2019-01-13T01:06:05.345Z,53.18
2019-01-13T01:07:07.397Z,53.19
2019-01-13T01:08:09.336Z,53.21
2019-01-13T01:09:14.331Z,53.18
2019-01-13T01:10:16.270Z,53.20
2019-01-13T01:11:19.966Z,53.20
2019-01-13T01:12:21.946Z,53.22
2019-01-13T01:13:23.898Z,53.22
2019-01-13T01:14:25.846Z,53.17
2019-01-13T01:15:27.774Z,53.20
2019-01-13T01:16:29.717Z,53.18
2019-01-13T01:17:31.707Z,53.19
2019-01-13T01:18:33.666Z,53.21
2019-01-13T01:19:35.778Z,53.19
2019-01-13T01:20:37.748Z,53.21
2019-01-13T01:21:42.787Z,53.19
2019-01-13T01:22:44.750Z,53.20
2019-01-13T01:23:47.297Z,53.20
2019-01-13T01:24:49.227Z,53.21
2019-01-13T01:25:51.164Z,53.19
2019-01-13T01:26:53.108Z,53.22
2019-01-13T01:27:55.125Z,53.22
2019-01-13T01:28:57.065Z,53.21
2019-01-13T01:29:58.992Z,53.22
2019-01-13T01:31:00.927Z,53.21
2019-01-13T01:32:02.857Z,53.20
2019-01-13T01:33:07.208Z,53.20
2019-01-13T01:34:09.158Z,53.21
2019-01-13T01:35:11.085Z,53.23
2019-01-13T01:36:13.456Z,53.23
2019-01-13T01:37:15.494Z,53.21
2019-01-13T01:38:17.534Z,53.22
2019-01-13T01:39:19.526Z,53.20
2019-01-13T01:40:21.454Z,53.20
2019-01-13T01:41:23.406Z,53.19
2019-01-13T01:42:25.348Z,53.19
2019-01-13T01:43:27.394Z,53.22
2019-01-13T01:44:29.329Z,53.21
2019-01-13T01:45:31.275Z,53.23
2019-01-13T01:46:33.226Z,53.24
2019-01-13T01:47:35.175Z,53.25
2019-01-13T01:48:37.127Z,53.21
2019-01-13T01:49:39.082Z,53.18
2019-01-13T01:50:41.026Z,53.19
2019-01-13T01:51:42.967Z,53.20
2019-01-13T01:52:46.626Z,53.20
2019-01-13T01:53:48.670Z,53.24
2019-01-13T01:54:50.618Z,53.23
2019-01-13T01:55:52.562Z,53.24
2019-01-13T01:56:54.484Z,53.21
2019-01-13T01:57:56.424Z,53.20
2019-01-13T01:58:58.387Z,53.20
2019-01-13T02:00:00.335Z,53.21
2019-01-13T02:01:02.325Z,53.20
2019-01-13T02:02:04.262Z,53.21
2019-01-13T02:03:06.226Z,53.24
2019-01-13T02:04:08.331Z,53.22
2019-01-13T02:05:10.384Z,53.22
2019-01-13T02:06:12.317Z,53.20
2019-01-13T02:07:14.301Z,53.21
2019-01-13T02:08:16.310Z,53.22
2019-01-13T02:09:18.550Z,53.21
2019-01-13T02:10:20.479Z,53.23
2019-01-13T02:11:22.418Z,53.23
2019-01-13T02:12:24.526Z,53.25
2019-01-13T02:13:27.027Z,53.23
2019-01-13T02:14:29.088Z,53.23
2019-01-13T02:15:31.260Z,53.24
2019-01-13T02:16:33.387Z,53.22
2019-01-13T02:17:35.328Z,53.22
2019-01-13T02:18:37.262Z,53.21
2019-01-13T02:19:39.243Z,53.18
2019-01-13T02:20:41.194Z,53.21
2019-01-13T02:21:43.185Z,53.21
2019-01-13T02:22:45.131Z,53.23
2019-01-13T02:23:47.072Z,53.22
2019-01-13T02:24:49.020Z,53.22
2019-01-13T02:25:50.946Z,53.21
2019-01-13T02:26:52.981Z,53.20
2019-01-13T02:27:55.515Z,53.22
2019-01-13T02:28:57.533Z,53.21
2019-01-13T02:29:59.505Z,53.21
2019-01-13T02:31:01.446Z,53.22
2019-01-13T02:32:03.370Z,53.24
2019-01-13T02:33:08.702Z,53.27
2019-01-13T02:34:10.638Z,53.27
2019-01-13T02:35:12.625Z,53.27
2019-01-13T02:36:14.562Z,53.27
2019-01-13T02:37:16.508Z,53.25
2019-01-13T02:38:19.039Z,53.23
2019-01-13T02:39:20.985Z,53.23
2019-01-13T02:40:22.926Z,53.25
2019-01-13T02:41:26.713Z,53.27
2019-01-13T02:42:28.640Z,53.24
2019-01-13T02:43:30.579Z,53.24
2019-01-13T02:44:32.520Z,53.23
2019-01-13T02:45:34.548Z,53.24
2019-01-13T02:46:36.495Z,53.25
2019-01-13T02:47:38.524Z,53.20
2019-01-13T02:48:40.483Z,53.21
2019-01-13T02:49:42.446Z,53.22
2019-01-13T02:50:44.471Z,53.23
2019-01-13T02:51:46.426Z,53.27
2019-01-13T02:52:48.377Z,53.28
2019-01-13T02:53:50.575Z,53.24
2019-01-13T02:54:52.496Z,53.23
2019-01-13T02:55:54.476Z,53.27
2019-01-13T02:56:56.630Z,53.25
2019-01-13T02:57:58.563Z,53.25
2019-01-13T02:59:01.658Z,53.25
2019-01-13T03:00:03.616Z,53.30
2019-01-13T03:01:05.579Z,53.30
2019-01-13T03:02:07.623Z,53.27
2019-01-13T03:03:09.549Z,53.28
2019-01-13T03:04:11.494Z,53.29
2019-01-13T03:05:13.444Z,53.28
2019-01-13T03:06:15.410Z,53.26
2019-01-13T03:07:17.337Z,53.25
2019-01-13T03:08:20.743Z,53.27
2019-01-13T03:09:22.688Z,53.29
2019-01-13T03:10:24.639Z,53.27
2019-01-13T03:11:26.611Z,53.30
2019-01-13T03:12:28.555Z,53.30
2019-01-13T03:13:30.512Z,53.30
2019-01-13T03:14:34.070Z,53.28
2019-01-13T03:15:36.027Z,53.30
2019-01-13T03:16:37.994Z,53.26
2019-01-13T03:17:39.925Z,53.28
2019-01-13T03:18:41.863Z,53.31
2019-01-13T03:19:43.782Z,53.28
2019-01-13T03:20:45.715Z,53.27
2019-01-13T03:21:47.688Z,53.30
2019-01-13T03:22:49.614Z,53.28
2019-01-13T03:23:51.553Z,53.28
2019-01-13T03:24:53.564Z,53.29
2019-01-13T03:25:55.598Z,53.31
2019-01-13T03:26:57.556Z,53.31
2019-01-13T03:27:59.566Z,53.26
2019-01-13T03:29:01.586Z,53.26
2019-01-13T03:30:03.515Z,53.24
2019-01-13T03:31:11.690Z,53.22
2019-01-13T03:32:09.216Z,53.24
2019-01-13T03:33:11.260Z,53.28
2019-01-13T03:34:13.367Z,53.27
2019-01-13T03:35:15.303Z,53.29
2019-01-13T03:36:19.674Z,53.28
2019-01-13T03:37:22.139Z,53.30
2019-01-13T03:38:24.171Z,53.22
2019-01-13T03:39:26.169Z,53.29
2019-01-13T03:40:28.116Z,53.29
2019-01-13T03:41:30.119Z,53.30
2019-01-13T03:42:32.080Z,53.30
2019-01-13T03:43:34.028Z,53.29
2019-01-13T03:44:36.047Z,53.29
2019-01-13T03:45:37.989Z,53.30
2019-01-13T03:46:40.035Z,53.29
2019-01-13T03:47:42.070Z,53.30
2019-01-13T03:48:43.992Z,53.30
2019-01-13T03:49:45.935Z,53.31
2019-01-13T03:50:47.863Z,53.29
2019-01-13T03:51:49.793Z,53.30
2019-01-13T03:52:53.151Z,53.30
2019-01-13T03:53:55.510Z,53.28
2019-01-13T03:54:57.462Z,53.29
2019-01-13T03:55:59.390Z,53.31
2019-01-13T03:57:01.340Z,53.29
2019-01-13T03:58:03.327Z,53.31
2019-01-13T03:59:05.323Z,53.31
2019-01-13T04:00:07.256Z,53.31
2019-01-13T04:01:09.189Z,53.28
2019-01-13T04:02:11.141Z,53.29
2019-01-13T04:03:13.172Z,53.32
2019-01-13T04:04:15.106Z,53.31
2019-01-13T04:05:17.062Z,53.27
2019-01-13T04:06:19.002Z,53.30
2019-01-13T04:07:20.938Z,53.30
2019-01-13T04:08:22.904Z,53.27
2019-01-13T04:09:24.829Z,53.27
2019-01-13T04:10:26.780Z,53.34
2019-01-13T04:11:28.795Z,53.32
2019-01-13T04:12:30.737Z,53.29
2019-01-13T04:13:32.707Z,53.31
2019-01-13T04:14:34.634Z,53.31
2019-01-13T04:15:36.649Z,53.30
2019-01-13T04:16:38.663Z,53.31
2019-01-13T04:17:41.138Z,53.32
2019-01-13T04:18:43.090Z,53.30
2019-01-13T04:19:45.022Z,53.31
2019-01-13T04:20:46.967Z,53.32
2019-01-13T04:21:48.886Z,53.35
2019-01-13T04:22:50.899Z,53.32
2019-01-13T04:23:52.870Z,53.31
2019-01-13T04:24:54.803Z,53.32
2019-01-13T04:25:56.986Z,53.34
2019-01-13T04:26:59.012Z,53.34
2019-01-13T04:28:00.949Z,53.34
2019-01-13T04:29:02.917Z,53.36
2019-01-13T04:30:04.926Z,53.34
2019-01-13T04:31:06.876Z,53.36
2019-01-13T04:32:08.886Z,53.39
2019-01-13T04:33:10.899Z,53.38
2019-01-13T04:34:12.869Z,53.37
2019-01-13T04:35:14.823Z,53.37
2019-01-13T04:36:18.820Z,53.39
2019-01-13T04:37:20.529Z,53.38
2019-01-13T04:38:22.459Z,53.39
2019-01-13T04:39:24.439Z,53.40
2019-01-13T04:40:26.367Z,53.42
2019-01-13T04:41:28.301Z,53.43
2019-01-13T04:42:30.238Z,53.42
2019-01-13T04:43:32.183Z,53.46
2019-01-13T04:44:34.129Z,53.45
2019-01-13T04:45:36.064Z,53.45
2019-01-13T04:46:38.979Z,53.46
2019-01-13T04:47:40.922Z,53.48
2019-01-13T04:48:42.902Z,53.48
2019-01-13T04:49:44.849Z,53.45
2019-01-13T04:50:46.779Z,53.44
2019-01-13T04:51:48.731Z,53.48
2019-01-13T04:52:50.674Z,53.47
2019-01-13T04:53:52.610Z,53.48
2019-01-13T04:54:54.585Z,53.50
2019-01-13T04:55:56.528Z,53.50
2019-01-13T04:56:58.469Z,53.52
2019-01-13T04:58:00.414Z,53.53
2019-01-13T04:59:02.428Z,53.53
2019-01-13T05:00:04.995Z,53.52
2019-01-13T05:01:06.924Z,53.52
2019-01-13T05:02:08.857Z,53.54
2019-01-13T05:03:13.131Z,53.54
2019-01-13T05:04:15.578Z,53.55
2019-01-13T05:05:17.508Z,53.56
2019-01-13T05:06:19.436Z,53.53
2019-01-13T05:07:21.755Z,53.55
2019-01-13T05:08:24.249Z,53.58
2019-01-13T05:09:26.191Z,53.58
2019-01-13T05:10:28.135Z,53.58
2019-01-13T05:11:30.075Z,53.58
2019-01-13T05:12:32.010Z,53.58
2019-01-13T05:13:33.943Z,53.62
2019-01-13T05:14:35.868Z,53.58
2019-01-13T05:15:37.932Z,53.61
2019-01-13T05:16:39.950Z,53.58
2019-01-13T05:17:43.190Z,53.58
2019-01-13T05:18:45.166Z,53.58
2019-01-13T05:19:47.123Z,53.59
2019-01-13T05:20:49.097Z,53.63
2019-01-13T05:21:51.042Z,53.62
2019-01-13T05:22:52.972Z,53.63
2019-01-13T05:23:54.913Z,53.64
2019-01-13T05:24:56.861Z,53.64
2019-01-13T05:25:58.845Z,53.64
2019-01-13T05:27:00.848Z,53.64
2019-01-13T05:28:02.796Z,53.64
2019-01-13T05:29:04.757Z,53.63
2019-01-13T05:30:08.556Z,53.65
2019-01-13T05:31:10.536Z,53.64
2019-01-13T05:32:12.486Z,53.64
2019-01-13T05:33:14.411Z,53.63
2019-01-13T05:34:16.421Z,53.60
2019-01-13T05:35:18.355Z,53.58
2019-01-13T05:36:20.316Z,53.60
2019-01-13T05:37:22.255Z,53.56
2019-01-13T05:38:25.275Z,53.58
2019-01-13T05:39:27.230Z,53.55
2019-01-13T05:40:29.175Z,53.58
2019-01-13T05:41:34.377Z,53.57
2019-01-13T05:42:36.320Z,53.56
2019-01-13T05:43:38.249Z,53.54
2019-01-13T05:44:43.584Z,53.55
2019-01-13T05:45:45.618Z,53.51
2019-01-13T05:46:47.668Z,53.53
2019-01-13T05:47:49.684Z,53.51
2019-01-13T05:48:51.715Z,53.49
2019-01-13T05:49:53.651Z,53.45
2019-01-13T05:50:55.594Z,53.45
2019-01-13T05:51:57.574Z,53.47
2019-01-13T05:52:59.573Z,53.48
2019-01-13T05:54:01.512Z,53.41
2019-01-13T05:55:03.459Z,53.46
2019-01-13T05:56:05.465Z,53.45
2019-01-13T05:57:07.430Z,53.47
2019-01-13T05:58:09.369Z,53.45
2019-01-13T05:59:11.306Z,53.44
2019-01-13T06:00:13.249Z,53.46
2019-01-13T06:01:15.204Z,53.46
2019-01-13T06:02:17.182Z,53.44
2019-01-13T06:03:19.110Z,53.40
2019-01-13T06:04:21.042Z,53.52
2019-01-13T06:05:22.990Z,53.52
2019-01-13T06:06:24.930Z,53.50
2019-01-13T06:07:26.898Z,53.46
2019-01-13T06:08:29.415Z,53.50
2019-01-13T06:09:31.348Z,53.43
2019-01-13T06:10:33.302Z,53.40
2019-01-13T06:11:35.246Z,53.46
2019-01-13T06:12:40.833Z,53.46
2019-01-13T06:13:42.761Z,53.44
2019-01-13T06:14:44.707Z,53.47
2019-01-13T06:15:46.674Z,53.48
2019-01-13T06:16:48.652Z,53.48
2019-01-13T06:17:50.701Z,53.45
2019-01-13T06:18:52.652Z,53.47
2019-01-13T06:19:54.585Z,53.43
2019-01-13T06:20:56.520Z,53.48
2019-01-13T06:21:58.466Z,53.48
2019-01-13T06:23:00.473Z,53.52
2019-01-13T06:24:02.484Z,53.52
2019-01-13T06:25:04.411Z,53.55
2019-01-13T06:26:06.422Z,53.54
2019-01-13T06:27:08.356Z,53.54
2019-01-13T06:28:10.297Z,53.56
2019-01-13T06:29:12.288Z,53.58
2019-01-13T06:30:14.241Z,53.54
2019-01-13T06:31:16.166Z,53.57
2019-01-13T06:32:18.091Z,53.61
2019-01-13T06:33:20.059Z,53.59
2019-01-13T06:34:21.994Z,53.58
2019-01-13T06:35:25.766Z,53.60
2019-01-13T06:36:27.740Z,53.62
2019-01-13T06:37:29.676Z,53.63
2019-01-13T06:38:33.817Z,53.60
2019-01-13T06:39:35.753Z,53.61
2019-01-13T06:40:37.703Z,53.63
2019-01-13T06:41:39.643Z,53.64
2019-01-13T06:42:41.570Z,53.65
2019-01-13T06:43:43.788Z,53.65
2019-01-13T06:44:45.733Z,53.65
2019-01-13T06:45:47.676Z,53.64
2019-01-13T06:46:49.613Z,53.67
2019-01-13T06:47:51.691Z,53.69
2019-01-13T06:48:55.083Z,53.69
2019-01-13T06:49:57.407Z,53.68
2019-01-13T06:50:59.916Z,53.72
2019-01-13T06:52:01.858Z,53.73
2019-01-13T06:53:03.825Z,53.68
2019-01-13T06:54:05.815Z,53.69
2019-01-13T06:55:07.742Z,53.72
2019-01-13T06:56:09.678Z,53.75
2019-01-13T06:57:11.624Z,53.76
2019-01-13T06:58:13.560Z,53.78
2019-01-13T06:59:15.523Z,53.77
2019-01-13T07:00:17.460Z,53.80
2019-01-13T07:01:19.402Z,53.80
2019-01-13T07:02:23.313Z,53.79
2019-01-13T07:03:24.985Z,53.80
2019-01-13T07:04:27.231Z,53.83
2019-01-13T07:05:29.177Z,53.82
2019-01-13T07:06:31.153Z,53.83
2019-01-13T07:07:33.099Z,53.83
2019-01-13T07:08:35.199Z,53.84
2019-01-13T07:09:37.164Z,53.84
2019-01-13T07:10:41.854Z,53.84
2019-01-13T07:11:43.793Z,53.84
2019-01-13T07:12:45.720Z,53.87
2019-01-13T07:13:47.652Z,53.85
2019-01-13T07:14:49.624Z,53.89
2019-01-13T07:15:51.544Z,53.92
2019-01-13T07:16:53.475Z,53.90
2019-01-13T07:17:58.178Z,53.90
2019-01-13T07:19:00.101Z,53.92
2019-01-13T07:20:02.112Z,53.91
2019-01-13T07:21:04.115Z,53.93
2019-01-13T07:22:06.042Z,53.95
2019-01-13T07:23:07.987Z,53.97
2019-01-13T07:24:09.931Z,53.97
2019-01-13T07:25:11.901Z,54.00
2019-01-13T07:26:15.572Z,53.98
2019-01-13T07:27:17.585Z,54.00
2019-01-13T07:28:19.591Z,54.00
2019-01-13T07:29:21.518Z,53.99
2019-01-13T07:30:23.773Z,54.02
2019-01-13T07:31:25.718Z,54.01
2019-01-13T07:32:27.653Z,54.02
2019-01-13T07:33:29.591Z,54.02
2019-01-13T07:34:31.555Z,54.01
2019-01-13T07:35:39.298Z,54.03
2019-01-13T07:36:41.260Z,54.02
2019-01-13T07:37:43.201Z,54.03
2019-01-13T07:38:45.138Z,54.04
2019-01-13T07:39:47.095Z,54.09
2019-01-13T07:40:49.053Z,54.08
2019-01-13T07:41:51.069Z,54.08
2019-01-13T07:42:53.075Z,54.09
2019-01-13T07:43:55.012Z,54.09
2019-01-13T07:44:56.948Z,54.08
2019-01-13T07:45:58.933Z,54.07
2019-01-13T07:47:00.889Z,54.09
2019-01-13T07:48:02.901Z,54.12
2019-01-13T07:49:04.845Z,54.14
2019-01-13T07:50:06.803Z,54.14
2019-01-13T07:51:08.738Z,54.16
2019-01-13T07:52:10.676Z,54.14
2019-01-13T07:53:12.610Z,54.12
2019-01-13T07:54:17.470Z,54.13
2019-01-13T07:55:19.414Z,54.12
2019-01-13T07:56:21.393Z,54.12
2019-01-13T07:57:23.326Z,54.14
2019-01-13T07:58:25.267Z,54.16
2019-01-13T07:59:27.194Z,54.15
2019-01-13T08:00:29.138Z,54.15
2019-01-13T08:01:31.193Z,54.16
2019-01-13T08:02:33.129Z,54.16
2019-01-13T08:03:35.071Z,54.18
2019-01-13T08:04:37.005Z,54.18
2019-01-13T08:05:38.945Z,54.17
2019-01-13T08:06:40.935Z,54.17
2019-01-13T08:07:42.871Z,54.19
2019-01-13T08:08:44.801Z,54.21
2019-01-13T08:09:46.813Z,54.22
2019-01-13T08:10:48.739Z,54.22
2019-01-13T08:11:50.753Z,54.18
2019-01-13T08:12:52.703Z,54.21
2019-01-13T08:13:54.636Z,54.19
2019-01-13T08:14:56.575Z,54.21
2019-01-13T08:15:58.515Z,54.21
2019-01-13T08:17:00.485Z,54.18
2019-01-13T08:18:02.627Z,54.18
2019-01-13T08:19:04.754Z,54.19
2019-01-13T08:20:06.708Z,54.18
2019-01-13T08:21:08.635Z,54.19
2019-01-13T08:22:10.602Z,54.17
2019-01-13T08:23:12.557Z,54.17
2019-01-13T08:24:14.565Z,54.20
2019-01-13T08:25:16.484Z,54.18
2019-01-13T08:26:18.429Z,54.17
2019-01-13T08:27:20.421Z,54.17
2019-01-13T08:28:22.425Z,54.18
2019-01-13T08:29:26.023Z,54.18
2019-01-13T08:30:27.953Z,54.17
2019-01-13T08:31:29.901Z,54.18
2019-01-13T08:32:31.880Z,54.19
2019-01-13T08:33:33.800Z,54.21
2019-01-13T08:34:35.752Z,54.21
2019-01-13T08:35:37.711Z,54.27
2019-01-13T08:36:39.692Z,54.33
2019-01-13T08:37:41.665Z,54.32
2019-01-13T08:38:43.602Z,54.33
2019-01-13T08:39:45.540Z,54.31
2019-01-13T08:40:47.495Z,54.33
2019-01-13T08:41:49.526Z,54.28
2019-01-13T08:42:51.563Z,54.35
2019-01-13T08:43:53.505Z,54.34
2019-01-13T08:44:55.446Z,54.29
2019-01-13T08:45:57.468Z,54.33
2019-01-13T08:46:59.569Z,54.35
2019-01-13T08:48:01.618Z,54.34
2019-01-13T08:49:03.699Z,54.32
2019-01-13T08:50:05.651Z,54.36
2019-01-13T08:51:07.666Z,54.34
2019-01-13T08:52:09.618Z,54.32
2019-01-13T08:53:11.589Z,54.35
2019-01-13T08:54:13.596Z,54.34
2019-01-13T08:55:15.545Z,54.28
2019-01-13T08:56:17.489Z,54.33
2019-01-13T08:57:19.500Z,54.34
2019-01-13T08:58:21.486Z,54.31
2019-01-13T08:59:23.479Z,54.34
2019-01-13T09:00:25.424Z,54.33
2019-01-13T09:01:27.366Z,54.35
2019-01-13T09:02:32.344Z,54.31
2019-01-13T09:03:33.028Z,54.35
2019-01-13T09:04:34.962Z,54.36
2019-01-13T09:05:37.050Z,54.33
2019-01-13T09:06:39.057Z,54.37
2019-01-13T09:07:41.011Z,54.35
2019-01-13T09:08:43.059Z,54.37
2019-01-13T09:09:45.066Z,54.38
2019-01-13T09:10:49.913Z,54.33
2019-01-13T09:11:52.193Z,54.38
2019-01-13T09:12:56.855Z,54.40
2019-01-13T09:13:57.916Z,54.40
2019-01-13T09:14:59.858Z,54.38
2019-01-13T09:16:01.883Z,54.40
2019-01-13T09:17:03.805Z,54.40
2019-01-13T09:18:05.762Z,54.39
2019-01-13T09:19:07.737Z,54.37
2019-01-13T09:20:09.682Z,54.42
2019-01-13T09:21:11.617Z,54.38
2019-01-13T09:22:13.548Z,54.38
2019-01-13T09:23:15.473Z,54.45
2019-01-13T09:24:17.452Z,54.44
2019-01-13T09:25:19.412Z,54.32
2019-01-13T09:26:21.362Z,54.43
2019-01-13T09:27:23.306Z,54.43
2019-01-13T09:28:25.229Z,54.38
2019-01-13T09:29:27.213Z,54.39
2019-01-13T09:30:29.161Z,54.37
2019-01-13T09:31:31.169Z,54.36
2019-01-13T09:32:39.263Z,54.31
2019-01-13T09:33:36.772Z,54.16
2019-01-13T09:34:38.753Z,54.29
2019-01-13T09:35:40.718Z,54.19
2019-01-13T09:36:42.728Z,54.18
2019-01-13T09:37:44.661Z,54.22
2019-01-13T09:38:49.353Z,54.19
2019-01-13T09:39:51.345Z,54.21
2019-01-13T09:40:53.299Z,54.25
2019-01-13T09:41:55.243Z,54.23
2019-01-13T09:42:57.267Z,54.13
2019-01-13T09:43:59.235Z,54.23
2019-01-13T09:45:01.254Z,54.23
2019-01-13T09:46:03.330Z,54.24
2019-01-13T09:47:05.293Z,54.21
2019-01-13T09:48:07.275Z,54.11
2019-01-13T09:49:09.212Z,54.12
2019-01-13T09:50:11.192Z,54.19
2019-01-13T09:51:13.208Z,54.17
2019-01-13T09:52:15.186Z,54.15
2019-01-13T09:53:17.145Z,54.20
2019-01-13T09:54:19.091Z,54.19
2019-01-13T09:55:21.065Z,54.20
2019-01-13T09:56:23.032Z,54.22
2019-01-13T09:57:24.973Z,54.23
2019-01-13T09:58:26.905Z,54.24
2019-01-13T09:59:28.839Z,54.22
2019-01-13T10:00:30.825Z,54.20
2019-01-13T10:01:32.826Z,54.16
2019-01-13T10:02:34.767Z,54.18
2019-01-13T10:03:36.786Z,54.17
2019-01-13T10:04:38.803Z,54.12
2019-01-13T10:05:40.786Z,54.17
2019-01-13T10:06:42.782Z,54.10
2019-01-13T10:07:44.807Z,54.20
2019-01-13T10:08:46.737Z,54.23
2019-01-13T10:09:48.694Z,54.23
2019-01-13T10:10:50.644Z,54.22
2019-01-13T10:11:52.753Z,54.22
2019-01-13T10:12:54.702Z,54.23
2019-01-13T10:13:56.656Z,54.25
2019-01-13T10:14:58.859Z,54.23
2019-01-13T10:16:01.477Z,54.11
2019-01-13T10:17:03.422Z,54.26
2019-01-13T10:18:05.385Z,54.19
2019-01-13T10:19:07.414Z,54.25
2019-01-13T10:20:09.373Z,54.20
2019-01-13T10:21:11.352Z,54.23
2019-01-13T10:22:13.320Z,54.26
2019-01-13T10:23:15.356Z,54.26
2019-01-13T10:24:17.353Z,54.22
2019-01-13T10:25:19.302Z,54.24
2019-01-13T10:26:21.261Z,54.30
2019-01-13T10:27:23.227Z,54.26
2019-01-13T10:28:25.175Z,54.33
2019-01-13T10:29:27.203Z,54.29
2019-01-13T10:30:29.129Z,54.31
2019-01-13T10:31:31.119Z,54.31
2019-01-13T10:32:33.048Z,54.28
2019-01-13T10:33:35.083Z,54.33
2019-01-13T10:34:37.091Z,54.33
2019-01-13T10:35:39.048Z,54.27
2019-01-13T10:36:41.030Z,54.23
2019-01-13T10:37:43.005Z,54.24
2019-01-13T10:38:45.074Z,54.30
2019-01-13T10:39:47.010Z,54.27
2019-01-13T10:40:48.950Z,54.21
2019-01-13T10:41:50.918Z,54.30
2019-01-13T10:42:52.859Z,54.34
2019-01-13T10:43:54.815Z,54.33
2019-01-13T10:44:56.811Z,54.35
2019-01-13T10:45:58.965Z,54.34
2019-01-13T10:47:01.532Z,54.35
2019-01-13T10:48:04.880Z,54.34
2019-01-13T10:49:07.285Z,54.35
2019-01-13T10:50:10.052Z,54.34
2019-01-13T10:51:12.671Z,54.36
2019-01-13T10:52:15.548Z,54.33
2019-01-13T10:53:18.101Z,54.29
2019-01-13T10:54:20.392Z,54.34
2019-01-13T10:55:22.887Z,54.31
2019-01-13T10:56:25.249Z,54.28
2019-01-13T10:57:27.918Z,54.31
2019-01-13T10:58:29.906Z,54.35
2019-01-13T10:59:31.851Z,54.35
2019-01-13T11:00:33.794Z,54.37
2019-01-13T11:01:35.740Z,54.39
2019-01-13T11:02:37.726Z,54.42
2019-01-13T11:03:39.709Z,54.39
2019-01-13T11:04:42.053Z,54.36
2019-01-13T11:05:44.007Z,54.38
2019-01-13T11:06:46.782Z,54.39
2019-01-13T11:07:52.325Z,54.36
2019-01-13T11:08:54.287Z,54.37
2019-01-13T11:09:59.066Z,54.42
2019-01-13T11:11:01.024Z,54.37
2019-01-13T11:12:03.240Z,54.35
2019-01-13T11:13:05.230Z,54.40
2019-01-13T11:14:07.177Z,54.39
2019-01-13T11:15:09.194Z,54.38
2019-01-13T11:16:11.198Z,54.40
2019-01-13T11:17:13.133Z,54.43
2019-01-13T11:18:15.747Z,54.43
2019-01-13T11:19:17.686Z,54.47
2019-01-13T11:20:19.741Z,54.42
2019-01-13T11:21:21.744Z,54.44
2019-01-13T11:22:26.296Z,54.43
2019-01-13T11:23:28.267Z,54.50
2019-01-13T11:24:30.210Z,54.46
2019-01-13T11:25:32.174Z,54.43
2019-01-13T11:26:34.205Z,54.43
2019-01-13T11:27:36.200Z,54.46
2019-01-13T11:28:38.160Z,54.45
2019-01-13T11:29:40.121Z,54.41
2019-01-13T11:30:42.121Z,54.42
2019-01-13T11:31:44.054Z,54.48
2019-01-13T11:32:45.997Z,54.45
2019-01-13T11:33:48.032Z,54.48
2019-01-13T11:34:50.052Z,54.45
2019-01-13T11:35:52.057Z,54.46
2019-01-13T11:36:54.004Z,54.48
2019-01-13T11:37:55.964Z,54.50
2019-01-13T11:38:57.937Z,54.43
2019-01-13T11:40:00.573Z,54.49
2019-01-13T11:41:02.619Z,54.46
2019-01-13T11:42:04.668Z,54.48
2019-01-13T11:43:06.690Z,54.52
2019-01-13T11:44:14.751Z,54.51
2019-01-13T11:45:16.774Z,54.52
2019-01-13T11:46:18.697Z,54.56
2019-01-13T11:47:20.625Z,54.57
2019-01-13T11:48:22.581Z,54.54
2019-01-13T11:49:26.118Z,54.52
2019-01-13T11:50:28.148Z,54.52
2019-01-13T11:51:30.074Z,54.47
2019-01-13T11:52:32.047Z,54.52
2019-01-13T11:53:33.984Z,54.51
2019-01-13T11:54:35.947Z,54.51
2019-01-13T11:55:37.885Z,54.55
2019-01-13T11:56:39.830Z,54.53
2019-01-13T11:57:41.783Z,54.53
2019-01-13T11:58:43.723Z,54.60
2019-01-13T11:59:45.709Z,54.55
2019-01-13T12:00:47.726Z,54.58
2019-01-13T12:01:49.679Z,54.54
2019-01-13T12:02:51.691Z,54.52
2019-01-13T12:03:53.691Z,54.55
2019-01-13T12:04:55.715Z,54.49
2019-01-13T12:05:57.661Z,54.53
2019-01-13T12:06:59.615Z,54.56
2019-01-13T12:08:01.568Z,54.53
2019-01-13T12:09:03.605Z,54.47
2019-01-13T12:10:05.582Z,54.53
2019-01-13T12:11:07.595Z,54.59
2019-01-13T12:12:09.556Z,54.53
2019-01-13T12:13:11.559Z,54.58
2019-01-13T12:14:13.495Z,54.57
2019-01-13T12:15:18.634Z,54.54
2019-01-13T12:16:22.927Z,54.55
2019-01-13T12:17:24.876Z,54.56
2019-01-13T12:18:26.804Z,54.63
2019-01-13T12:19:28.733Z,54.57
2019-01-13T12:20:30.712Z,54.62
2019-01-13T12:21:32.647Z,54.58
2019-01-13T12:22:34.601Z,54.57
2019-01-13T12:23:38.871Z,54.55
2019-01-13T12:24:40.525Z,54.58
2019-01-13T12:25:43.088Z,54.50
2019-01-13T12:26:45.037Z,54.50
2019-01-13T12:27:47.032Z,54.50
2019-01-13T12:28:48.986Z,54.53
2019-01-13T12:29:50.924Z,54.47
2019-01-13T12:30:52.900Z,54.49
2019-01-13T12:31:54.866Z,54.50
2019-01-13T12:32:56.871Z,54.50
2019-01-13T12:33:58.832Z,54.45
2019-01-13T12:35:00.808Z,54.48
2019-01-13T12:36:02.868Z,54.52
2019-01-13T12:37:08.577Z,54.50
2019-01-13T12:38:10.694Z,54.58
2019-01-13T12:39:14.623Z,54.51
2019-01-13T12:40:16.639Z,54.58
2019-01-13T12:41:18.609Z,54.59
2019-01-13T12:42:20.536Z,54.57
2019-01-13T12:43:22.506Z,54.56
2019-01-13T12:44:24.446Z,54.52
2019-01-13T12:45:26.446Z,54.55
2019-01-13T12:46:28.428Z,54.55
2019-01-13T12:47:30.441Z,54.57
2019-01-13T12:48:32.399Z,54.56
2019-01-13T12:49:34.342Z,54.55
2019-01-13T12:50:36.290Z,54.57
2019-01-13T12:51:38.279Z,54.50
2019-01-13T12:52:40.290Z,54.61
2019-01-13T12:53:42.247Z,54.50
2019-01-13T12:54:44.247Z,54.55
2019-01-13T12:55:46.179Z,54.56
2019-01-13T12:56:48.151Z,54.59
2019-01-13T12:57:50.192Z,54.60
2019-01-13T12:58:52.128Z,54.59
2019-01-13T12:59:54.124Z,54.59
2019-01-13T13:00:59.517Z,54.62
2019-01-13T13:02:01.506Z,54.62
2019-01-13T13:03:05.037Z,54.59
2019-01-13T13:04:06.990Z,54.61
2019-01-13T13:05:08.943Z,54.68
2019-01-13T13:06:14.094Z,54.68
2019-01-13T13:07:15.859Z,54.66
2019-01-13T13:08:17.883Z,54.67
2019-01-13T13:09:19.829Z,54.66
2019-01-13T13:10:21.785Z,54.68
2019-01-13T13:11:23.797Z,54.66
2019-01-13T13:12:25.749Z,54.69
2019-01-13T13:13:27.711Z,54.68
2019-01-13T13:14:29.712Z,54.70
2019-01-13T13:15:31.660Z,54.68
2019-01-13T13:16:33.597Z,54.66
2019-01-13T13:17:38.089Z,54.68
2019-01-13T13:18:40.092Z,54.67
2019-01-13T13:19:42.108Z,54.69
2019-01-13T13:20:44.029Z,54.68